createdAt,value
2018-12-14T00:00:35.017Z,-0.80
2018-12-14T00:03:07.459Z,-0.80
2018-12-14T00:05:39.687Z,-0.80
2018-12-14T00:08:10.091Z,-0.80
2018-12-14T00:10:40.457Z,-0.80
2018-12-14T00:13:10.867Z,-0.80
2018-12-14T00:15:41.260Z,-0.70
2018-12-14T00:18:11.648Z,-0.70
2018-12-14T00:20:42.193Z,-0.70
2018-12-14T00:23:12.595Z,-0.70
2018-12-14T00:25:42.969Z,-0.80
2018-12-14T00:28:13.385Z,-0.70
2018-12-14T00:30:43.774Z,-0.70
2018-12-14T00:33:14.173Z,-0.70
2018-12-14T00:35:44.820Z,-0.70
2018-12-14T00:38:15.205Z,-0.70
2018-12-14T00:40:45.583Z,-0.60
2018-12-14T00:43:15.992Z,-0.60
2018-12-14T00:45:46.389Z,-0.70
2018-12-14T00:48:16.775Z,-0.70
2018-12-14T00:50:47.244Z,-0.80
2018-12-14T00:53:17.824Z,-0.70
2018-12-14T00:55:48.230Z,-0.70
2018-12-14T00:58:18.588Z,-0.80
2018-12-14T01:00:49.000Z,-0.70
2018-12-14T01:03:19.370Z,-0.80
2018-12-14T01:05:49.765Z,-0.80
2018-12-14T01:08:20.178Z,-0.80
2018-12-14T01:10:50.545Z,-0.70
2018-12-14T01:13:20.939Z,-0.70
2018-12-14T01:15:51.326Z,-0.70
2018-12-14T01:18:21.709Z,-0.70
2018-12-14T01:20:52.119Z,-0.70
2018-12-14T01:23:22.506Z,-0.70
2018-12-14T01:25:52.902Z,-0.80
2018-12-14T01:28:23.275Z,-0.70
2018-12-14T01:30:53.754Z,-0.80
2018-12-14T01:33:24.139Z,-0.80
2018-12-14T01:35:54.545Z,-0.70
2018-12-14T01:38:25.441Z,-0.70
2018-12-14T01:40:55.822Z,-0.60
2018-12-14T01:43:26.221Z,-0.70
2018-12-14T01:45:56.617Z,-0.70
2018-12-14T01:48:27.042Z,-0.70
2018-12-14T01:50:57.438Z,-0.70
2018-12-14T01:53:27.844Z,-0.70
2018-12-14T01:55:58.219Z,-0.70
2018-12-14T01:58:28.620Z,-0.70
2018-12-14T02:00:58.986Z,-0.70
2018-12-14T02:03:32.444Z,-0.70
2018-12-14T02:06:02.814Z,-0.70
2018-12-14T02:08:33.227Z,-0.80
2018-12-14T02:11:03.590Z,-0.70
2018-12-14T02:13:33.989Z,-0.80
2018-12-14T02:16:04.376Z,-0.80
2018-12-14T02:18:34.791Z,-0.80
2018-12-14T02:21:05.272Z,-0.80
2018-12-14T02:23:35.669Z,-0.80
2018-12-14T02:26:06.062Z,-0.70
2018-12-14T02:28:36.430Z,-0.80
2018-12-14T02:31:06.990Z,-0.90
2018-12-14T02:33:40.981Z,-0.80
2018-12-14T02:36:13.237Z,-0.80
2018-12-14T02:38:44.077Z,-0.80
2018-12-14T02:41:14.464Z,-0.80
2018-12-14T02:43:44.867Z,-0.90
2018-12-14T02:46:15.230Z,-0.80
2018-12-14T02:48:45.738Z,-0.90
2018-12-14T02:51:16.178Z,-0.90
2018-12-14T02:53:46.637Z,-0.90
2018-12-14T02:56:17.014Z,-0.90
2018-12-14T02:58:47.397Z,-0.90
2018-12-14T03:01:17.776Z,-1.00
2018-12-14T03:03:48.179Z,-0.90
2018-12-14T03:06:19.471Z,-0.90
2018-12-14T03:08:51.894Z,-0.90
2018-12-14T03:11:22.278Z,-0.90
2018-12-14T03:13:52.676Z,-1.00
2018-12-14T03:16:23.077Z,-1.00
2018-12-14T03:18:53.480Z,-1.00
2018-12-14T03:21:23.863Z,-1.00
2018-12-14T03:23:54.281Z,-1.00
2018-12-14T03:26:24.644Z,-0.90
2018-12-14T03:28:55.052Z,-1.00
2018-12-14T03:31:25.445Z,-0.90
2018-12-14T03:33:55.838Z,-1.00
2018-12-14T03:36:26.198Z,-1.00
2018-12-14T03:38:56.590Z,-1.00
2018-12-14T03:41:27.061Z,-1.00
2018-12-14T03:43:57.436Z,-0.90
2018-12-14T03:46:27.834Z,-1.00
2018-12-14T03:48:58.214Z,-1.00
2018-12-14T03:51:29.039Z,-1.00
2018-12-14T03:53:59.431Z,-1.10
2018-12-14T03:56:29.792Z,-1.00
2018-12-14T03:59:00.190Z,-1.00
2018-12-14T04:01:30.554Z,-1.00
2018-12-14T04:04:00.936Z,-1.00
2018-12-14T04:06:31.400Z,-0.90
2018-12-14T04:09:03.927Z,-1.00
2018-12-14T04:11:36.056Z,-1.00
2018-12-14T04:14:08.455Z,-1.00
2018-12-14T04:16:38.809Z,-1.00
2018-12-14T04:19:09.205Z,-0.90
2018-12-14T04:21:39.661Z,-1.10
2018-12-14T04:24:15.554Z,-1.10
2018-12-14T04:26:45.940Z,-1.10
2018-12-14T04:29:16.500Z,-1.00
2018-12-14T04:31:46.860Z,-1.00
2018-12-14T04:34:20.188Z,-1.00
2018-12-14T04:36:50.586Z,-1.10
2018-12-14T04:39:22.705Z,-1.10
2018-12-14T04:41:53.088Z,-1.00
2018-12-14T04:44:23.485Z,-1.10
2018-12-14T04:46:53.864Z,-1.10
2018-12-14T04:49:24.700Z,-1.00
2018-12-14T04:51:55.065Z,-0.90
2018-12-14T04:54:25.462Z,-1.00
2018-12-14T04:56:55.839Z,-1.10
2018-12-14T04:59:26.238Z,-1.10
2018-12-14T05:01:56.671Z,-1.00
2018-12-14T05:04:27.050Z,-1.00
2018-12-14T05:06:57.443Z,-1.00
2018-12-14T05:09:28.432Z,-1.10
2018-12-14T05:11:58.830Z,-1.10
2018-12-14T05:14:29.218Z,-1.00
2018-12-14T05:16:59.687Z,-1.10
2018-12-14T05:19:30.069Z,-1.10
2018-12-14T05:22:00.622Z,-1.20
2018-12-14T05:24:31.025Z,-1.10
2018-12-14T05:27:01.414Z,-1.00
2018-12-14T05:29:31.895Z,-1.10
2018-12-14T05:32:02.310Z,-1.10
2018-12-14T05:34:32.693Z,-1.10
2018-12-14T05:37:03.103Z,-1.00
2018-12-14T05:39:33.481Z,-1.00
2018-12-14T05:42:03.881Z,-1.00
2018-12-14T05:44:34.253Z,-1.00
2018-12-14T05:47:04.699Z,-1.10
2018-12-14T05:49:35.071Z,-1.10
2018-12-14T05:52:07.177Z,-1.10
2018-12-14T05:54:37.540Z,-1.10
2018-12-14T05:57:07.954Z,-1.20
2018-12-14T05:59:38.329Z,-1.20
2018-12-14T06:02:08.728Z,-1.30
2018-12-14T06:04:40.032Z,-1.20
2018-12-14T06:07:10.413Z,-1.10
2018-12-14T06:09:42.498Z,-1.20
2018-12-14T06:12:13.626Z,-1.20
2018-12-14T06:14:44.008Z,-1.10
2018-12-14T06:17:14.385Z,-1.20
2018-12-14T06:19:44.799Z,-1.20
2018-12-14T06:22:15.164Z,-1.20
2018-12-14T06:24:45.580Z,-1.20
2018-12-14T06:27:15.959Z,-1.20
2018-12-14T06:29:46.367Z,-1.20
2018-12-14T06:32:16.748Z,-1.20
2018-12-14T06:34:47.140Z,-1.50
2018-12-14T06:37:17.810Z,-1.50
2018-12-14T06:39:48.182Z,-1.30
2018-12-14T06:42:18.858Z,-1.20
2018-12-14T06:44:49.498Z,-1.20
2018-12-14T06:47:19.905Z,-1.10
2018-12-14T06:49:51.341Z,-1.20
2018-12-14T06:52:21.736Z,-1.20
2018-12-14T06:54:52.128Z,-1.20
2018-12-14T06:57:22.587Z,-1.10
2018-12-14T06:59:53.210Z,-1.20
2018-12-14T07:02:23.617Z,-1.20
2018-12-14T07:04:54.017Z,-1.10
2018-12-14T07:07:24.444Z,-1.10
2018-12-14T07:09:54.868Z,-1.10
2018-12-14T07:12:25.230Z,-1.00
2018-12-14T07:14:55.633Z,-1.00
2018-12-14T07:17:26.015Z,-1.10
2018-12-14T07:19:56.418Z,-1.10
2018-12-14T07:22:26.843Z,-1.10
2018-12-14T07:24:57.233Z,-1.10
2018-12-14T07:27:27.645Z,-1.10
2018-12-14T07:29:58.006Z,-1.10
2018-12-14T07:32:28.429Z,-1.10
2018-12-14T07:34:58.806Z,-1.20
2018-12-14T07:37:29.231Z,-1.20
2018-12-14T07:39:59.586Z,-1.20
2018-12-14T07:42:29.982Z,-1.30
2018-12-14T07:45:00.397Z,-1.20
2018-12-14T07:47:34.534Z,-1.20
2018-12-14T07:50:06.048Z,-1.10
2018-12-14T07:52:36.410Z,-1.10
2018-12-14T07:55:06.906Z,-1.10
2018-12-14T07:57:37.411Z,-1.20
2018-12-14T08:00:08.427Z,-1.30
2018-12-14T08:02:38.922Z,-1.20
2018-12-14T08:05:09.394Z,-1.20
2018-12-14T08:07:39.789Z,-1.10
2018-12-14T08:10:10.220Z,-1.10
2018-12-14T08:12:40.647Z,-1.00
2018-12-14T08:15:12.108Z,-1.10
2018-12-14T08:17:42.680Z,-1.10
2018-12-14T08:20:17.075Z,-1.10
2018-12-14T08:22:45.665Z,-1.00
2018-12-14T08:25:16.236Z,-1.10
2018-12-14T08:27:46.640Z,-1.10
2018-12-14T08:30:16.997Z,-1.10
2018-12-14T08:32:47.402Z,-1.10
2018-12-14T08:35:17.772Z,-1.10
2018-12-14T08:37:48.174Z,-1.10
2018-12-14T08:40:18.534Z,-1.20
2018-12-14T08:42:48.941Z,-1.10
2018-12-14T08:45:19.314Z,-1.10
2018-12-14T08:47:49.700Z,-1.10
2018-12-14T08:50:20.083Z,-1.10
2018-12-14T08:52:50.480Z,-1.10
2018-12-14T08:55:20.871Z,-1.20
2018-12-14T08:57:51.251Z,-1.20
2018-12-14T09:00:21.663Z,-1.10
2018-12-14T09:02:52.041Z,-1.20
2018-12-14T09:05:22.427Z,-1.30
2018-12-14T09:07:52.810Z,-1.20
2018-12-14T09:10:23.334Z,-1.20
2018-12-14T09:12:53.734Z,-1.10
2018-12-14T09:15:24.151Z,-1.00
2018-12-14T09:17:54.627Z,-1.10
2018-12-14T09:20:25.007Z,-1.10
2018-12-14T09:22:55.607Z,-1.10
2018-12-14T09:25:25.975Z,-1.10
2018-12-14T09:27:56.374Z,-1.10
2018-12-14T09:30:26.769Z,-1.10
2018-12-14T09:32:57.166Z,-1.20
2018-12-14T09:35:27.579Z,-1.10
2018-12-14T09:37:57.972Z,-1.20
2018-12-14T09:40:28.349Z,-1.10
2018-12-14T09:42:58.720Z,-1.10
2018-12-14T09:45:29.105Z,-1.20
2018-12-14T09:47:59.464Z,-1.30
2018-12-14T09:50:29.872Z,-1.20
2018-12-14T09:53:00.251Z,-1.10
2018-12-14T09:55:30.674Z,-1.30
2018-12-14T09:58:01.318Z,-1.20
2018-12-14T10:00:31.692Z,-1.20
2018-12-14T10:03:02.073Z,-1.10
2018-12-14T10:05:32.476Z,-1.10
2018-12-14T10:08:02.953Z,-1.10
2018-12-14T10:10:33.340Z,-1.10
2018-12-14T10:13:03.751Z,-1.20
2018-12-14T10:15:34.125Z,-1.40
2018-12-14T10:18:04.680Z,-1.50
2018-12-14T10:20:35.064Z,-1.50
2018-12-14T10:23:05.582Z,-1.50
2018-12-14T10:25:35.944Z,-1.50
2018-12-14T10:28:06.342Z,-1.50
2018-12-14T10:30:36.751Z,-1.30
2018-12-14T10:33:08.075Z,-1.20
2018-12-14T10:35:38.437Z,-1.10
2018-12-14T10:38:08.910Z,-1.10
2018-12-14T10:40:39.388Z,-1.10
2018-12-14T10:43:09.857Z,-1.00
2018-12-14T10:45:40.517Z,-1.00
2018-12-14T10:48:10.909Z,-1.10
2018-12-14T10:50:41.324Z,-1.00
2018-12-14T10:53:11.771Z,-1.00
2018-12-14T10:55:42.261Z,-1.00
2018-12-14T10:58:12.923Z,-0.90
2018-12-14T11:00:48.718Z,-1.10
2018-12-14T11:03:19.122Z,-1.30
2018-12-14T11:05:49.488Z,-1.50
2018-12-14T11:08:19.886Z,-1.30
2018-12-14T11:10:50.273Z,-1.40
2018-12-14T11:13:20.679Z,-1.40
2018-12-14T11:15:51.069Z,-1.40
2018-12-14T11:18:21.471Z,-1.20
2018-12-14T11:20:51.875Z,-1.10
2018-12-14T11:23:22.236Z,-1.20
2018-12-14T11:25:52.692Z,-1.30
2018-12-14T11:28:23.053Z,-1.20
2018-12-14T11:30:53.450Z,-1.20
2018-12-14T11:33:23.816Z,-1.10
2018-12-14T11:35:54.220Z,-1.10
2018-12-14T11:38:24.631Z,-1.10
2018-12-14T11:40:55.124Z,-1.10
2018-12-14T11:43:25.502Z,-1.20
2018-12-14T11:45:57.665Z,-1.20
2018-12-14T11:48:28.084Z,-1.20
2018-12-14T11:50:58.444Z,-1.20
2018-12-14T11:53:28.842Z,-1.20
2018-12-14T11:55:59.229Z,-1.20
2018-12-14T11:58:29.616Z,-1.00
2018-12-14T12:01:00.015Z,-1.10
2018-12-14T12:03:30.379Z,-1.10
2018-12-14T12:06:00.983Z,-1.00
2018-12-14T12:08:31.353Z,-1.00
2018-12-14T12:11:01.760Z,-0.90
2018-12-14T12:13:32.145Z,-1.00
2018-12-14T12:16:02.557Z,-0.90
2018-12-14T12:18:32.930Z,-0.90
2018-12-14T12:21:03.343Z,-0.90
2018-12-14T12:23:33.740Z,-0.90
2018-12-14T12:26:04.151Z,-0.90
2018-12-14T12:28:34.551Z,-0.80
2018-12-14T12:31:06.038Z,-0.80
2018-12-14T12:33:36.410Z,-0.90
2018-12-14T12:36:06.818Z,-1.00
2018-12-14T12:38:38.268Z,-0.90
2018-12-14T12:41:09.087Z,-0.90
2018-12-14T12:43:39.480Z,-1.00
2018-12-14T12:46:10.134Z,-1.00
2018-12-14T12:48:40.876Z,-1.20
2018-12-14T12:51:11.385Z,-1.20
2018-12-14T12:53:41.861Z,-1.10
2018-12-14T12:56:12.856Z,-1.00
2018-12-14T12:58:43.348Z,-1.10
2018-12-14T13:01:13.798Z,-1.00
2018-12-14T13:03:44.243Z,-0.90
2018-12-14T13:06:14.638Z,-0.90
2018-12-14T13:08:45.073Z,-1.20
2018-12-14T13:11:15.583Z,-1.10
2018-12-14T13:13:46.297Z,-1.20
2018-12-14T13:16:16.675Z,-1.30
2018-12-14T13:18:47.078Z,-1.30
2018-12-14T13:21:17.454Z,-1.20
2018-12-14T13:23:47.863Z,-1.20
2018-12-14T13:26:18.253Z,-1.20
2018-12-14T13:28:54.605Z,-1.10
2018-12-14T13:31:24.968Z,-1.20
2018-12-14T13:33:55.439Z,-1.30
2018-12-14T13:36:25.836Z,-1.20
2018-12-14T13:38:57.212Z,-1.30
2018-12-14T13:41:27.618Z,-1.10
2018-12-14T13:43:58.004Z,-1.20
2018-12-14T13:46:28.400Z,-1.10
2018-12-14T13:49:04.713Z,-1.20
2018-12-14T13:51:35.385Z,-1.10
2018-12-14T13:54:05.766Z,-1.20
2018-12-14T13:56:36.170Z,-1.30
2018-12-14T13:59:08.311Z,-1.40
2018-12-14T14:01:40.506Z,-1.40
2018-12-14T14:04:16.888Z,-1.50
2018-12-14T14:06:47.271Z,-1.30
2018-12-14T14:09:17.714Z,-1.20
2018-12-14T14:11:48.240Z,-1.30
2018-12-14T14:14:18.751Z,-1.30
2018-12-14T14:16:50.448Z,-1.40
2018-12-14T14:19:20.949Z,-1.30
2018-12-14T14:21:51.342Z,-1.20
2018-12-14T14:24:22.132Z,-1.40
2018-12-14T14:26:53.208Z,-1.40
2018-12-14T14:29:23.932Z,-1.40
2018-12-14T14:31:54.500Z,-1.40
2018-12-14T14:34:28.152Z,-1.40
2018-12-14T14:36:59.007Z,-1.40
2018-12-14T14:39:29.777Z,-1.40
2018-12-14T14:42:00.284Z,-1.40
2018-12-14T14:44:30.854Z,-1.40
2018-12-14T14:47:01.517Z,-1.40
2018-12-14T14:49:35.683Z,-1.40
2018-12-14T14:52:06.501Z,-1.50
2018-12-14T14:54:39.935Z,-1.40
2018-12-14T14:57:09.737Z,-1.40
2018-12-14T14:59:41.080Z,-1.60
2018-12-14T15:02:13.535Z,-1.60
2018-12-14T15:04:43.923Z,-1.50
2018-12-14T15:07:14.381Z,-1.60
2018-12-14T15:09:44.782Z,-1.70
2018-12-14T15:12:16.058Z,-1.70
2018-12-14T15:14:46.487Z,-1.70
2018-12-14T15:17:16.959Z,-1.70
2018-12-14T15:19:48.258Z,-1.70
2018-12-14T15:22:18.717Z,-1.60
2018-12-14T15:24:49.287Z,-1.60
2018-12-14T15:27:21.669Z,-1.70
2018-12-14T15:29:52.351Z,-1.70
2018-12-14T15:32:23.995Z,-1.70
2018-12-14T15:34:54.460Z,-1.80
2018-12-14T15:37:28.090Z,-1.90
2018-12-14T15:39:58.482Z,-2.10
2018-12-14T15:42:29.173Z,-2.00
2018-12-14T15:44:59.666Z,-2.00
2018-12-14T15:47:30.049Z,-2.00
2018-12-14T15:50:00.523Z,-1.90
2018-12-14T15:52:31.054Z,-1.90
2018-12-14T15:55:01.726Z,-1.80
2018-12-14T15:57:32.135Z,-1.70
2018-12-14T16:00:02.530Z,-1.60
2018-12-14T16:02:33.726Z,-1.70
2018-12-14T16:05:04.414Z,-1.70
2018-12-14T16:07:34.877Z,-1.80
2018-12-14T16:10:07.274Z,-1.80
2018-12-14T16:12:37.758Z,-1.80
2018-12-14T16:15:08.956Z,-1.70
2018-12-14T16:17:39.745Z,-1.60
2018-12-14T16:20:10.873Z,-1.80
2018-12-14T16:22:41.301Z,-1.80
2018-12-14T16:25:11.659Z,-1.80
2018-12-14T16:27:44.208Z,-1.70
2018-12-14T16:30:14.601Z,-1.70
2018-12-14T16:32:45.008Z,-1.80
2018-12-14T16:35:15.399Z,-1.70
2018-12-14T16:37:45.855Z,-1.70
2018-12-14T16:40:16.269Z,-1.70
2018-12-14T16:42:46.706Z,-1.80
2018-12-14T16:45:17.124Z,-1.80
2018-12-14T16:47:48.574Z,-1.90
2018-12-14T16:50:19.006Z,-1.90
2018-12-14T16:52:50.591Z,-1.90
2018-12-14T16:55:21.973Z,-1.90
2018-12-14T16:57:53.458Z,-1.80
2018-12-14T17:00:23.921Z,-1.80
2018-12-14T17:02:54.827Z,-1.70
2018-12-14T17:05:25.512Z,-1.90
2018-12-14T17:07:59.490Z,-1.80
2018-12-14T17:10:30.378Z,-1.90
2018-12-14T17:13:00.790Z,-1.90
2018-12-14T17:15:33.395Z,-1.90
2018-12-14T17:18:04.728Z,-1.90
2018-12-14T17:20:36.485Z,-1.80
2018-12-14T17:23:11.062Z,-1.80
2018-12-14T17:25:41.593Z,-1.90
2018-12-14T17:28:12.274Z,-1.90
2018-12-14T17:30:42.720Z,-1.80
2018-12-14T17:33:13.109Z,-1.80
2018-12-14T17:35:43.560Z,-1.80
2018-12-14T17:38:15.893Z,-1.70
2018-12-14T17:40:48.127Z,-1.60
2018-12-14T17:43:18.496Z,-1.70
2018-12-14T17:45:48.877Z,-1.80
2018-12-14T17:48:19.254Z,-1.80
2018-12-14T17:50:49.699Z,-1.80
2018-12-14T17:53:20.069Z,-1.90
2018-12-14T17:55:50.517Z,-1.90
2018-12-14T17:58:20.923Z,-1.90
2018-12-14T18:00:58.285Z,-1.80
2018-12-14T18:03:25.729Z,-1.80
2018-12-14T18:05:56.089Z,-1.80
2018-12-14T18:08:27.583Z,-1.80
2018-12-14T18:10:59.052Z,-1.70
2018-12-14T18:13:30.422Z,-1.80
2018-12-14T18:16:00.895Z,-1.70
2018-12-14T18:18:31.400Z,-1.70
2018-12-14T18:21:01.906Z,-1.80
2018-12-14T18:23:32.352Z,-1.80
2018-12-14T18:26:02.718Z,-1.90
2018-12-14T18:28:33.234Z,-1.90
2018-12-14T18:31:07.915Z,-1.90
2018-12-14T18:33:38.306Z,-1.90
2018-12-14T18:36:08.940Z,-1.90
2018-12-14T18:38:40.324Z,-1.90
2018-12-14T18:41:12.100Z,-1.90
2018-12-14T18:43:42.584Z,-1.80
2018-12-14T18:46:13.407Z,-1.90
2018-12-14T18:48:44.212Z,-1.90
2018-12-14T18:51:14.633Z,-1.90
2018-12-14T18:53:46.866Z,-1.90
2018-12-14T18:56:17.258Z,-2.00
2018-12-14T18:58:47.666Z,-2.00
2018-12-14T19:01:18.075Z,-2.00
2018-12-14T19:03:49.920Z,-2.00
2018-12-14T19:06:20.314Z,-1.90
2018-12-14T19:08:50.835Z,-1.80
2018-12-14T19:11:21.321Z,-1.80
2018-12-14T19:13:51.818Z,-1.70
2018-12-14T19:16:22.182Z,-1.80
2018-12-14T19:18:52.623Z,-1.80
2018-12-14T19:21:23.028Z,-2.00
2018-12-14T19:23:53.425Z,-2.00
2018-12-14T19:26:23.973Z,-2.00
2018-12-14T19:28:54.352Z,-2.00
2018-12-14T19:31:24.780Z,-2.00
2018-12-14T19:33:55.174Z,-1.90
2018-12-14T19:36:25.567Z,-1.90
2018-12-14T19:38:56.351Z,-1.80
2018-12-14T19:41:26.723Z,-1.80
2018-12-14T19:43:57.118Z,-1.90
2018-12-14T19:46:27.597Z,-2.00
2018-12-14T19:48:57.994Z,-2.00
2018-12-14T19:51:28.379Z,-1.90
2018-12-14T19:53:58.776Z,-1.90
2018-12-14T19:56:29.240Z,-1.90
2018-12-14T19:58:59.638Z,-1.80
2018-12-14T20:01:30.064Z,-1.90
2018-12-14T20:04:00.493Z,-1.80
2018-12-14T20:06:35.060Z,-1.90
2018-12-14T20:09:06.350Z,-1.90
2018-12-14T20:11:38.425Z,-1.90
2018-12-14T20:14:09.016Z,-1.90
2018-12-14T20:16:39.677Z,-1.80
2018-12-14T20:19:10.138Z,-1.80
2018-12-14T20:21:41.511Z,-1.90
2018-12-14T20:24:11.924Z,-1.80
2018-12-14T20:26:45.007Z,-1.80
2018-12-14T20:29:23.685Z,-1.80
2018-12-14T20:31:59.680Z,-1.90
2018-12-14T20:34:30.065Z,-1.80
2018-12-14T20:37:00.473Z,-1.80
2018-12-14T20:39:32.490Z,-1.80
2018-12-14T20:42:02.908Z,-1.80
2018-12-14T20:44:33.323Z,-1.80
2018-12-14T20:47:04.675Z,-1.80
2018-12-14T20:49:38.336Z,-1.80
2018-12-14T20:52:08.720Z,-1.90
2018-12-14T20:54:44.531Z,-1.80
2018-12-14T20:57:27.575Z,-1.80
2018-12-14T21:00:05.376Z,-1.80
2018-12-14T21:02:41.668Z,-1.70
2018-12-14T21:05:25.200Z,-1.70
2018-12-14T21:07:55.607Z,-1.70
2018-12-14T21:10:31.996Z,-1.60
2018-12-14T21:13:10.195Z,-1.70
2018-12-14T21:15:46.860Z,-1.80
2018-12-14T21:18:23.416Z,-1.70
2018-12-14T21:20:57.619Z,-1.70
2018-12-14T21:23:35.988Z,-1.80
2018-12-14T21:26:18.494Z,-1.80
2018-12-14T21:29:00.950Z,-1.80
2018-12-14T21:31:37.038Z,-1.90
2018-12-14T21:34:07.705Z,-1.80
2018-12-14T21:36:39.630Z,-1.80
2018-12-14T21:39:15.498Z,-1.70
2018-12-14T21:41:51.666Z,-1.70
2018-12-14T21:44:34.379Z,-1.70
2018-12-14T21:47:08.247Z,-1.70
2018-12-14T21:49:45.752Z,-1.80
2018-12-14T21:52:20.030Z,-1.80
2018-12-14T21:54:56.084Z,-1.80
2018-12-14T21:57:26.485Z,-1.90
2018-12-14T22:00:03.373Z,-1.90
2018-12-14T22:02:39.873Z,-2.00
2018-12-14T22:05:17.370Z,-2.00
2018-12-14T22:07:50.841Z,-1.90
2018-12-14T22:10:33.102Z,-2.00
2018-12-14T22:13:08.974Z,-1.90
2018-12-14T22:15:49.122Z,-1.80
2018-12-14T22:18:21.555Z,-1.90
2018-12-14T22:20:55.644Z,-1.90
2018-12-14T22:23:29.145Z,-1.90
2018-12-14T22:25:59.917Z,-1.90
2018-12-14T22:28:35.828Z,-1.80
2018-12-14T22:31:12.195Z,-1.90
2018-12-14T22:33:48.657Z,-1.80
2018-12-14T22:36:28.911Z,-1.80
2018-12-14T22:38:59.298Z,-1.80
2018-12-14T22:41:36.448Z,-1.80
2018-12-14T22:44:12.993Z,-1.80
2018-12-14T22:46:45.694Z,-1.80
2018-12-14T22:49:25.697Z,-1.70
2018-12-14T22:52:02.758Z,-1.70
2018-12-14T22:54:42.950Z,-1.70
2018-12-14T22:57:14.797Z,-1.80
2018-12-14T22:59:46.884Z,-1.80
2018-12-14T23:02:23.594Z,-1.80
2018-12-14T23:04:55.630Z,-1.70
2018-12-14T23:07:31.839Z,-1.70
2018-12-14T23:10:02.246Z,-1.70
2018-12-14T23:12:34.063Z,-1.70
2018-12-14T23:15:07.883Z,-1.70
2018-12-14T23:17:44.135Z,-1.70
2018-12-14T23:20:20.214Z,-1.90
2018-12-14T23:22:50.588Z,-1.80
2018-12-14T23:25:20.999Z,-1.80
2018-12-14T23:27:54.731Z,-1.90
2018-12-14T23:30:32.836Z,-1.90
2018-12-14T23:33:09.555Z,-1.80
2018-12-14T23:35:46.241Z,-1.80
2018-12-14T23:38:17.310Z,-1.70
2018-12-14T23:40:53.168Z,-1.70
2018-12-14T23:43:29.567Z,-1.60
2018-12-14T23:46:02.546Z,-1.60
2018-12-14T23:48:38.699Z,-1.70
2018-12-14T23:51:12.818Z,-1.70
2018-12-14T23:53:48.872Z,-1.70
2018-12-14T23:56:22.682Z,-1.70
2018-12-14T23:58:53.099Z,-1.70
